Time;durP1;ratioP1;P1;durP2;ratioP2;P2;SDS_P1;SDS_P2;PMS_P1;PMS_P2;Temp;Humidity;BMP_temperature;BMP_pressure;BME280_temperature;BME280_humidity;BME280_pressure;Samples;Min_cycle;Max_cycle;Signal;HPM_P1;HPM_P2
2022/06/22 00:01:39;;;;;;;6.75;2.28;;;12.00;99.90;;;;;;5054915;28;20056;-87
2022/06/22 00:04:27;;;;;;;5.55;2.58;;;11.90;99.90;;;;;;5054980;28;20045;-85
2022/06/22 00:07:22;;;;;;;5.78;2.60;;;11.80;99.90;;;;;;5023464;28;20057;-88
2022/06/22 00:10:21;;;;;;;12.75;2.80;;;11.80;99.90;;;;;;5036430;28;20045;-83
2022/06/22 00:13:17;;;;;;;4.43;2.20;;;11.80;99.90;;;;;;5022335;28;20048;-87
2022/06/22 00:16:05;;;;;;;5.25;2.25;;;11.80;99.90;;;;;;5055612;28;20489;-82
2022/06/22 00:18:52;;;;;;;5.25;2.63;;;11.80;99.90;;;;;;5053320;28;20048;-83
2022/06/22 00:21:40;;;;;;;6.30;2.72;;;11.80;99.90;;;;;;5036052;28;20394;-82
2022/06/22 00:24:26;;;;;;;5.15;2.85;;;11.80;99.90;;;;;;5055833;28;20128;-82
2022/06/22 00:27:27;;;;;;;5.78;2.60;;;11.70;99.90;;;;;;5037273;28;20134;-88
2022/06/22 00:30:21;;;;;;;7.75;3.33;;;11.80;99.90;;;;;;5021699;28;20115;-82
2022/06/22 00:33:29;;;;;;;9.10;3.20;;;11.80;99.90;;;;;;5036461;28;20107;-88
2022/06/22 00:36:19;;;;;;;6.28;2.83;;;11.80;99.90;;;;;;5054868;28;20052;-84
2022/06/22 00:39:16;;;;;;;7.90;2.20;;;11.80;99.90;;;;;;5055374;28;20045;-88
2022/06/22 00:42:14;;;;;;;7.40;3.35;;;11.70;99.90;;;;;;5039634;28;20500;-88
2022/06/22 00:45:11;;;;;;;3.50;1.60;;;11.70;99.90;;;;;;5054425;28;20516;-88
2022/06/22 00:48:06;;;;;;;6.00;2.25;;;11.70;99.90;;;;;;5035852;28;20041;-86
2022/06/22 00:51:03;;;;;;;5.40;2.17;;;11.60;99.90;;;;;;5022649;28;20531;-84
2022/06/22 00:54:00;;;;;;;7.43;2.90;;;11.60;99.90;;;;;;5052694;28;20061;-85
2022/06/22 00:57:13;;;;;;;8.77;2.75;;;11.60;99.90;;;;;;5053709;28;20076;-81
2022/06/22 01:00:04;;;;;;;5.70;2.47;;;11.60;99.90;;;;;;5037287;28;20057;-88
2022/06/22 01:02:55;;;;;;;5.43;2.58;;;11.50;99.90;;;;;;5022856;28;20057;-88
2022/06/22 01:06:02;;;;;;;4.80;2.47;;;11.50;99.90;;;;;;5058956;28;20382;-81
2022/06/22 01:09:21;;;;;;;8.82;2.38;;;11.50;99.90;;;;;;5044279;28;20509;-86
2022/06/22 01:12:25;;;;;;;5.07;2.22;;;11.40;99.90;;;;;;5058286;28;20059;-82
2022/06/22 01:15:39;;;;;;;5.15;2.38;;;11.40;99.90;;;;;;5038229;28;20389;-81
2022/06/22 01:18:31;;;;;;;4.88;2.08;;;11.40;99.90;;;;;;5037454;28;20053;-82
2022/06/22 01:21:30;;;;;;;5.10;2.25;;;11.40;99.90;;;;;;5041525;28;20052;-86
2022/06/22 01:24:24;;;;;;;4.63;2.33;;;11.40;99.90;;;;;;5037847;28;20469;-85
2022/06/22 01:27:29;;;;;;;3.00;1.52;;;11.40;99.90;;;;;;5038597;28;20060;-86
2022/06/22 01:30:28;;;;;;;4.40;1.67;;;11.40;99.90;;;;;;5034971;28;20049;-89
2022/06/22 01:33:32;;;;;;;5.50;1.75;;;11.30;99.90;;;;;;5035197;28;20091;-88
2022/06/22 01:36:29;;;;;;;6.13;2.88;;;11.30;99.90;;;;;;5035489;28;20146;-83
2022/06/22 01:39:15;;;;;;;5.72;2.33;;;11.30;99.90;;;;;;5055672;28;20053;-89
2022/06/22 01:42:24;;;;;;;5.43;1.80;;;11.30;99.90;;;;;;5055836;28;20497;-85
2022/06/22 01:45:33;;;;;;;4.75;2.00;;;11.30;99.90;;;;;;5061687;28;20037;-87
2022/06/22 01:48:31;;;;;;;9.48;2.65;;;11.40;99.90;;;;;;5021044;28;20063;-89
2022/06/22 01:51:36;;;;;;;5.78;2.50;;;11.40;99.90;;;;;;5035480;28;20055;-85
2022/06/22 01:54:29;;;;;;;6.72;2.70;;;11.40;99.90;;;;;;5025843;28;20104;-83
2022/06/22 01:57:41;;;;;;;7.70;2.85;;;11.40;99.90;;;;;;5040144;28;20496;-87
2022/06/22 02:00:27;;;;;;;6.15;3.28;;;11.40;99.90;;;;;;5035082;28;20143;-84
2022/06/22 02:03:22;;;;;;;6.40;2.92;;;11.30;99.90;;;;;;5052314;28;20057;-87
2022/06/22 02:09:47;;;;;;;6.07;2.50;;;11.40;99.90;;;;;;5053217;28;20045;-82
2022/06/22 02:12:50;;;;;;;9.38;2.85;;;11.40;99.90;;;;;;5054374;28;20148;-83
2022/06/22 02:15:39;;;;;;;5.43;2.88;;;11.40;99.90;;;;;;5034498;28;20088;-82
2022/06/22 02:18:51;;;;;;;11.35;3.40;;;11.50;99.90;;;;;;5037283;28;20139;-82
2022/06/22 02:21:47;;;;;;;7.75;3.20;;;11.40;99.90;;;;;;5034308;28;20049;-84
2022/06/22 02:24:41;;;;;;;7.93;3.13;;;11.40;99.90;;;;;;5034111;28;20049;-82
2022/06/22 02:27:29;;;;;;;10.38;3.15;;;11.40;99.90;;;;;;5037115;28;20052;-87
2022/06/22 02:30:15;;;;;;;6.63;3.53;;;11.40;99.90;;;;;;5051956;28;20053;-86
2022/06/22 02:33:02;;;;;;;7.93;4.00;;;11.40;99.90;;;;;;5034962;28;20131;-86
2022/06/22 02:35:48;;;;;;;9.27;3.38;;;11.40;99.90;;;;;;5021458;28;20041;-82
2022/06/22 02:38:35;;;;;;;7.75;4.22;;;11.40;99.90;;;;;;5052866;28;20064;-82
2022/06/22 02:44:33;;;;;;;12.93;5.97;;;11.40;99.90;;;;;;5067130;28;20048;-83
2022/06/22 02:47:27;;;;;;;20.05;6.88;;;11.50;99.90;;;;;;5034123;28;20140;-82
2022/06/22 02:50:34;;;;;;;11.02;6.03;;;11.40;99.90;;;;;;5052354;28;20045;-83
2022/06/22 02:53:34;;;;;;;10.52;6.47;;;11.50;99.90;;;;;;5043030;28;20060;-81
2022/06/22 02:56:27;;;;;;;12.77;6.45;;;11.40;99.90;;;;;;5042571;28;20044;-81
2022/06/22 02:59:15;;;;;;;10.15;6.68;;;11.40;99.90;;;;;;5052261;28;20113;-85
2022/06/22 03:02:02;;;;;;;10.70;6.25;;;11.40;99.90;;;;;;5050181;28;20087;-83
2022/06/22 03:04:50;;;;;;;8.80;6.22;;;11.40;99.90;;;;;;5045346;28;20497;-85
2022/06/22 03:07:48;;;;;;;9.88;5.38;;;11.40;99.90;;;;;;5471819;22;20069;-84
2022/06/22 03:10:55;;;;;;;7.85;5.75;;;11.40;99.90;;;;;;5052648;28;20588;-83
2022/06/22 03:14:17;;;;;;;14.93;6.68;;;11.50;99.90;;;;;;5044306;28;20056;-84
2022/06/22 03:17:12;;;;;;;10.23;6.32;;;11.50;99.90;;;;;;5064940;28;20057;-83
2022/06/22 03:20:25;;;;;;;9.30;5.57;;;11.50;99.90;;;;;;5069561;28;20049;-84
2022/06/22 03:23:39;;;;;;;13.32;7.47;;;11.50;99.90;;;;;;5029813;28;20041;-85
2022/06/22 03:26:31;;;;;;;14.18;7.85;;;11.50;99.90;;;;;;5058868;28;20128;-86
2022/06/22 03:29:27;;;;;;;15.48;7.93;;;11.50;99.90;;;;;;5053720;28;20076;-89
2022/06/22 03:32:55;;;;;;;9.30;6.43;;;11.50;99.90;;;;;;5054311;28;20045;-82
2022/06/22 03:35:56;;;;;;;11.77;6.85;;;11.60;99.90;;;;;;5022326;28;20071;-83
2022/06/22 03:38:49;;;;;;;10.70;6.47;;;11.60;99.90;;;;;;5037112;28;20045;-87
2022/06/22 03:41:44;;;;;;;10.73;5.82;;;11.60;99.90;;;;;;5033847;28;20468;-88
2022/06/22 03:44:38;;;;;;;9.50;5.57;;;11.60;99.90;;;;;;5052052;28;20099;-86
2022/06/22 03:47:45;;;;;;;10.07;6.03;;;11.70;99.90;;;;;;5033192;28;20405;-87
2022/06/22 03:50:58;;;;;;;8.13;5.07;;;11.70;99.90;;;;;;5050827;28;20041;-85
2022/06/22 03:53:54;;;;;;;6.07;4.15;;;11.70;99.90;;;;;;5034877;28;20060;-82
2022/06/22 03:56:45;;;;;;;6.90;4.18;;;11.70;99.90;;;;;;5051923;28;20056;-81
2022/06/22 03:59:32;;;;;;;9.48;5.38;;;11.70;99.90;;;;;;5051074;28;20045;-82
2022/06/22 04:02:19;;;;;;;8.10;5.22;;;11.80;99.90;;;;;;5032345;28;20049;-81
2022/06/22 04:05:05;;;;;;;13.05;5.25;;;11.80;99.90;;;;;;5050402;28;20049;-81
2022/06/22 04:07:53;;;;;;;7.65;4.55;;;11.80;99.90;;;;;;5039170;28;20053;-83
2022/06/22 04:10:46;;;;;;;8.77;5.80;;;11.90;99.90;;;;;;5030677;28;20069;-84
2022/06/22 04:13:40;;;;;;;8.73;5.50;;;11.90;99.90;;;;;;5013233;28;20054;-83
2022/06/22 04:16:38;;;;;;;7.97;4.32;;;11.90;99.90;;;;;;5030121;28;20390;-83
2022/06/22 04:19:42;;;;;;;7.45;4.10;;;12.00;99.90;;;;;;5012369;28;20045;-85
2022/06/22 04:22:31;;;;;;;8.60;4.88;;;12.00;99.90;;;;;;5000731;28;20053;-85
2022/06/22 04:25:25;;;;;;;7.32;5.47;;;12.10;99.90;;;;;;5006206;28;20108;-84
2022/06/22 04:28:14;;;;;;;8.15;5.20;;;12.20;99.90;;;;;;5018087;28;20491;-82
2022/06/22 04:31:02;;;;;;;7.03;4.45;;;12.20;99.90;;;;;;5030694;28;20049;-83
2022/06/22 04:33:58;;;;;;;8.82;4.55;;;12.30;99.90;;;;;;5028711;28;20065;-82
2022/06/22 04:36:51;;;;;;;9.30;6.32;;;12.40;99.90;;;;;;5012813;28;20049;-83
2022/06/22 04:39:44;;;;;;;9.90;7.10;;;12.50;99.90;;;;;;5030669;28;20050;-83
2022/06/22 04:42:30;;;;;;;16.63;7.10;;;12.60;99.90;;;;;;5016124;28;20058;-83
2022/06/22 04:45:30;;;;;;;22.73;11.25;;;12.70;99.90;;;;;;5033208;28;20053;-82
2022/06/22 04:48:28;;;;;;;12.73;8.73;;;12.80;99.90;;;;;;5002986;28;20049;-84
2022/06/22 04:51:24;;;;;;;14.90;9.07;;;12.90;99.90;;;;;;5034263;28;20061;-83
2022/06/22 04:54:27;;;;;;;14.38;9.02;;;13.10;99.90;;;;;;5032442;28;20497;-82
2022/06/22 04:57:28;;;;;;;18.63;12.32;;;13.20;99.90;;;;;;5034416;28;20100;-83
2022/06/22 05:00:18;;;;;;;16.02;11.43;;;13.30;99.90;;;;;;5038493;28;20053;-85
2022/06/22 05:03:09;;;;;;;20.20;12.15;;;13.50;99.90;;;;;;5041683;28;20437;-82
2022/06/22 05:06:01;;;;;;;22.58;15.38;;;13.60;99.90;;;;;;5005968;28;20096;-82
2022/06/22 05:09:16;;;;;;;28.00;15.43;;;13.70;99.90;;;;;;5009049;28;20058;-84
2022/06/22 05:12:07;;;;;;;22.40;12.73;;;13.90;99.90;;;;;;5016443;28;20544;-85
2022/06/22 05:14:57;;;;;;;22.00;13.13;;;14.00;99.90;;;;;;5033837;28;20497;-87
2022/06/22 05:17:43;;;;;;;18.50;13.20;;;14.20;99.90;;;;;;5034165;28;20119;-85
2022/06/22 05:20:42;;;;;;;21.15;8.65;;;14.30;99.90;;;;;;5034289;28;20065;-85
2022/06/22 05:23:31;;;;;;;10.80;6.85;;;14.50;99.90;;;;;;5016122;28;20097;-86
2022/06/22 05:26:22;;;;;;;16.35;6.93;;;14.60;99.90;;;;;;5014970;28;20885;-86
2022/06/22 05:29:14;;;;;;;11.85;5.13;;;14.70;99.90;;;;;;5034788;28;20049;-84
2022/06/22 05:32:04;;;;;;;12.27;5.80;;;14.90;99.90;;;;;;5032658;28;20058;-85
2022/06/22 05:34:54;;;;;;;17.70;6.80;;;15.00;99.90;;;;;;5035996;28;20057;-82
2022/06/22 05:37:45;;;;;;;18.25;6.25;;;15.20;99.90;;;;;;5018958;28;20053;-82
2022/06/22 05:40:32;;;;;;;15.32;5.20;;;15.30;99.90;;;;;;5017544;28;20408;-82
2022/06/22 05:43:19;;;;;;;14.77;5.60;;;15.40;99.90;;;;;;5015406;28;20413;-82
2022/06/22 05:46:06;;;;;;;12.30;4.65;;;15.60;99.90;;;;;;5000851;28;20136;-82
2022/06/22 05:48:55;;;;;;;13.02;4.97;;;15.80;99.90;;;;;;5033900;28;20452;-81
2022/06/22 05:51:57;;;;;;;12.02;4.32;;;15.80;99.90;;;;;;5033378;28;20069;-83
2022/06/22 05:54:52;;;;;;;12.10;4.68;;;16.00;99.90;;;;;;5016378;28;20057;-82
2022/06/22 05:57:50;;;;;;;13.88;5.88;;;16.10;99.90;;;;;;5016372;28;20177;-85
2022/06/22 06:00:49;;;;;;;11.35;4.28;;;16.30;99.90;;;;;;5032168;28;20575;-83
2022/06/22 06:03:42;;;;;;;11.98;4.75;;;16.30;99.90;;;;;;5032490;28;20460;-83
2022/06/22 06:06:34;;;;;;;8.60;4.00;;;16.50;99.90;;;;;;5031654;28;20184;-81
2022/06/22 06:09:24;;;;;;;9.98;4.20;;;16.70;99.90;;;;;;5048507;28;20602;-80
2022/06/22 06:12:21;;;;;;;12.75;4.88;;;16.80;99.90;;;;;;5053049;28;20212;-80
2022/06/22 06:15:11;;;;;;;14.10;4.47;;;17.00;99.90;;;;;;5035392;28;20053;-85
2022/06/22 06:17:58;;;;;;;11.82;4.45;;;17.20;99.90;;;;;;5036681;28;20048;-85
2022/06/22 06:20:50;;;;;;;8.63;3.92;;;17.40;99.90;;;;;;5050538;28;20052;-84
2022/06/22 06:23:42;;;;;;;8.05;4.68;;;17.50;99.90;;;;;;5050859;28;20571;-86
2022/06/22 06:29:42;;;;;;;10.30;4.60;;;17.70;99.90;;;;;;5050980;28;20056;-83
2022/06/22 06:32:40;;;;;;;8.88;4.00;;;17.70;99.90;;;;;;5051733;28;20094;-81
2022/06/22 06:35:47;;;;;;;12.85;3.42;;;17.90;99.90;;;;;;5022635;28;20055;-83
2022/06/22 06:38:38;;;;;;;10.35;4.38;;;18.00;99.90;;;;;;5052163;28;20040;-81
2022/06/22 06:42:03;;;;;;;13.68;3.47;;;18.10;99.90;;;;;;5050687;28;20049;-84
2022/06/22 06:44:51;;;;;;;11.70;4.53;;;18.20;99.90;;;;;;5050074;28;20083;-82
2022/06/22 06:47:40;;;;;;;11.27;4.05;;;18.40;99.90;;;;;;5048883;28;20084;-80
2022/06/22 06:50:47;;;;;;;13.55;4.45;;;18.60;99.90;;;;;;5052693;28;20080;-82
2022/06/22 06:53:39;;;;;;;13.23;3.97;;;18.70;99.90;;;;;;5037220;28;20534;-84
2022/06/22 06:56:32;;;;;;;8.10;3.38;;;18.80;99.90;;;;;;5051413;28;20049;-86
2022/06/22 06:59:23;;;;;;;14.15;4.78;;;18.80;99.90;;;;;;5052595;28;20041;-86
2022/06/22 07:02:40;;;;;;;13.27;4.70;;;18.90;99.90;;;;;;5035575;28;20501;-86
2022/06/22 07:05:29;;;;;;;9.48;4.18;;;19.00;99.90;;;;;;5026961;28;20515;-84
2022/06/22 07:08:28;;;;;;;11.82;5.03;;;18.90;99.90;;;;;;5050791;28;20481;-79
2022/06/22 07:11:31;;;;;;;9.70;3.60;;;18.90;99.90;;;;;;5053966;28;20053;-83
2022/06/22 07:14:35;;;;;;;11.95;3.97;;;19.20;99.90;;;;;;5073047;28;20044;-83
2022/06/22 07:17:23;;;;;;;15.23;4.65;;;19.40;99.90;;;;;;5054768;28;20135;-80
2022/06/22 07:20:27;;;;;;;8.18;3.90;;;19.50;99.90;;;;;;5070595;28;20398;-81
2022/06/22 07:23:23;;;;;;;10.48;3.80;;;19.60;99.90;;;;;;5053747;28;20100;-85
2022/06/22 07:26:20;;;;;;;10.95;3.85;;;19.90;99.90;;;;;;5069454;28;20538;-82
2022/06/22 07:29:23;;;;;;;12.45;4.40;;;20.00;99.90;;;;;;5069915;28;20471;-81
2022/06/22 07:32:22;;;;;;;13.07;4.18;;;20.10;99.90;;;;;;5069871;28;20145;-83
2022/06/22 07:35:38;;;;;;;11.40;3.50;;;20.20;99.90;;;;;;5069811;28;20057;-82
2022/06/22 07:38:43;;;;;;;11.20;3.58;;;20.30;99.90;;;;;;5052880;28;20105;-85
2022/06/22 07:41:31;;;;;;;9.93;3.53;;;20.00;99.90;;;;;;5055204;28;20044;-84
2022/06/22 07:44:21;;;;;;;10.93;3.65;;;20.10;99.90;;;;;;5054300;28;20049;-83
2022/06/22 07:47:33;;;;;;;9.02;3.20;;;20.30;99.90;;;;;;5057198;28;20052;-86
2022/06/22 07:50:32;;;;;;;12.73;3.85;;;20.50;99.90;;;;;;5058200;28;20057;-85
2022/06/22 07:53:32;;;;;;;10.38;3.83;;;20.40;99.90;;;;;;5070549;28;20431;-86
2022/06/22 07:56:29;;;;;;;10.18;3.72;;;20.70;99.90;;;;;;5072270;28;20377;-84
2022/06/22 07:59:48;;;;;;;10.43;3.47;;;20.90;99.90;;;;;;5069853;28;20052;-82
2022/06/22 08:03:10;;;;;;;10.90;3.88;;;21.10;99.90;;;;;;5045739;28;20055;-86
2022/06/22 08:06:03;;;;;;;12.60;4.20;;;21.30;99.90;;;;;;5070276;28;20044;-88
2022/06/22 08:08:57;;;;;;;9.98;3.47;;;21.30;99.90;;;;;;5051874;28;20084;-81
2022/06/22 08:11:58;;;;;;;8.85;3.55;;;21.50;99.90;;;;;;5056101;28;20056;-87
2022/06/22 08:14:52;;;;;;;9.98;3.70;;;21.50;99.90;;;;;;5051985;28;20078;-88
2022/06/22 08:17:44;;;;;;;7.83;3.50;;;21.50;99.90;;;;;;5074851;28;20045;-84
2022/06/22 08:20:33;;;;;;;11.13;3.42;;;21.80;99.90;;;;;;5073293;28;20828;-83
2022/06/22 08:23:34;;;;;;;12.40;4.03;;;21.70;99.90;;;;;;5058471;28;20063;-84
2022/06/22 08:26:29;;;;;;;7.68;3.30;;;21.60;99.90;;;;;;5075374;28;20492;-86
2022/06/22 08:29:18;;;;;;;;;;;21.40;99.90;;;;;;5076604;28;20045;-80
2022/06/22 08:32:19;;;;;;;10.38;3.22;;;21.90;99.90;;;;;;5056768;28;19921;-83
2022/06/22 08:35:18;;;;;;;11.23;3.35;;;21.90;99.90;;;;;;5040927;28;20053;-79
2022/06/22 08:38:25;;;;;;;10.82;3.53;;;22.10;99.90;;;;;;5054622;28;20078;-81
2022/06/22 08:41:45;;;;;;;12.65;3.20;;;22.20;99.90;;;;;;5074022;28;20404;-85
2022/06/22 08:44:42;;;;;;;8.07;2.78;;;22.50;99.50;;;;;;5057046;28;20044;-84
2022/06/22 08:48:03;;;;;;;7.63;3.13;;;22.60;99.20;;;;;;5072966;28;20126;-82
2022/06/22 08:51:08;;;;;;;6.82;2.80;;;22.80;99.60;;;;;;4983481;28;20147;-83
2022/06/22 08:54:11;;;;;;;7.45;2.88;;;22.80;99.50;;;;;;5072701;28;20093;-81
2022/06/22 08:57:15;;;;;;;12.70;3.20;;;22.70;98.70;;;;;;5058637;28;20044;-80
2022/06/22 09:00:12;;;;;;;8.77;3.25;;;22.80;99.10;;;;;;5055160;28;20045;-82
2022/06/22 09:03:07;;;;;;;15.93;4.03;;;22.80;99.00;;;;;;5073175;28;20051;-83
2022/06/22 09:06:19;;;;;;;11.60;3.83;;;23.00;98.50;;;;;;5073871;28;20056;-84
2022/06/22 12:32:02;;;;;;;5.93;2.10;;;28.30;73.10;;;;;;5036213;28;20055;-79
2022/06/22 12:35:05;;;;;;;6.55;2.47;;;28.50;72.90;;;;;;5057149;28;20052;-82
2022/06/22 12:38:00;;;;;;;6.40;2.80;;;28.00;72.90;;;;;;5073255;28;20517;-81
2022/06/22 12:41:20;;;;;;;6.60;2.95;;;27.80;72.50;;;;;;5073564;28;20506;-81
2022/06/22 12:44:44;;;;;;;5.88;2.50;;;28.20;75.80;;;;;;5073222;28;20045;-81
2022/06/22 12:48:09;;;;;;;6.97;2.20;;;28.50;74.80;;;;;;5073338;28;20084;-81
2022/06/22 12:51:07;;;;;;;5.72;2.05;;;28.00;71.40;;;;;;5060771;28;20055;-82
2022/06/22 12:53:59;;;;;;;7.78;2.35;;;28.50;73.60;;;;;;5055377;28;20056;-81
2022/06/22 12:56:48;;;;;;;7.25;2.35;;;28.90;73.20;;;;;;5055890;28;20045;-81
2022/06/22 13:00:14;;;;;;;7.30;2.47;;;28.80;71.90;;;;;;5073304;28;20045;-84
2022/06/22 13:03:00;;;;;;;8.68;3.30;;;28.30;69.30;;;;;;5041687;28;20165;-80
2022/06/22 13:05:47;;;;;;;6.78;2.08;;;28.40;70.70;;;;;;5055573;28;20060;-84
2022/06/22 13:08:33;;;;;;;8.77;2.60;;;28.50;70.70;;;;;;5077263;28;20045;-83
2022/06/22 13:11:23;;;;;;;6.15;2.00;;;28.60;68.10;;;;;;5072517;28;20037;-86
2022/06/22 13:14:31;;;;;;;5.85;1.83;;;28.80;67.20;;;;;;5073121;28;20048;-80
2022/06/22 13:17:43;;;;;;;8.07;2.20;;;29.20;66.90;;;;;;5073154;28;20101;-78
2022/06/22 13:20:56;;;;;;;8.75;2.20;;;29.30;67.30;;;;;;5074266;28;20139;-80
2022/06/22 13:23:54;;;;;;;11.90;2.67;;;29.70;65.40;;;;;;5056208;28;20048;-80
2022/06/22 13:27:37;;;;;;;7.60;2.10;;;29.90;64.60;;;;;;5073196;28;20133;-82
2022/06/22 13:30:36;;;;;;;7.63;2.05;;;29.70;63.90;;;;;;5075202;28;20048;-81
2022/06/22 13:33:36;;;;;;;8.40;2.60;;;29.90;62.20;;;;;;5058211;28;20786;-80
2022/06/22 13:36:35;;;;;;;11.00;2.53;;;30.40;61.70;;;;;;5072105;28;20052;-81
2022/06/22 13:39:35;;;;;;;4.95;1.92;;;30.00;61.90;;;;;;5072188;28;20056;-81
2022/06/22 13:42:55;;;;;;;7.35;2.28;;;30.00;61.50;;;;;;5055041;28;20462;-79
2022/06/22 13:45:59;;;;;;;6.35;2.28;;;30.40;60.90;;;;;;5055024;28;20061;-84
2022/06/22 13:49:00;;;;;;;7.57;2.03;;;30.50;58.40;;;;;;5073334;28;20048;-80
2022/06/22 13:52:12;;;;;;;6.00;2.38;;;30.60;57.80;;;;;;5053800;28;20047;-81
2022/06/22 13:55:16;;;;;;;6.85;1.90;;;30.60;57.80;;;;;;5072897;28;20048;-83
2022/06/22 13:58:18;;;;;;;4.53;1.90;;;30.40;59.60;;;;;;5054520;28;20057;-81
2022/06/22 14:01:19;;;;;;;6.95;2.03;;;30.80;58.40;;;;;;5071279;28;20083;-78
2022/06/22 14:04:17;;;;;;;3.63;1.40;;;30.80;58.20;;;;;;5071681;28;20416;-84
2022/06/22 14:07:32;;;;;;;5.97;1.73;;;30.90;55.90;;;;;;5056280;28;20139;-81
2022/06/22 14:10:24;;;;;;;;;;;30.80;55.60;;;;;;5072260;28;20057;-81
2022/06/22 14:13:27;;;;;;;4.70;1.70;;;30.80;55.90;;;;;;5071537;28;19928;-84
2022/06/22 14:16:41;;;;;;;4.78;1.73;;;31.40;56.10;;;;;;5054205;28;20064;-86
2022/06/22 14:19:46;;;;;;;6.90;2.13;;;31.60;55.20;;;;;;5054031;28;20147;-78
2022/06/22 14:22:39;;;;;;;5.32;1.90;;;31.40;54.30;;;;;;5071359;28;20137;-78
2022/06/22 14:25:41;;;;;;;5.68;1.95;;;31.30;53.70;;;;;;5072424;28;20056;-76
2022/06/22 14:28:53;;;;;;;5.38;1.83;;;31.50;55.40;;;;;;5053737;28;20477;-81
2022/06/22 14:31:57;;;;;;;5.20;1.48;;;31.50;54.60;;;;;;5052737;28;20044;-81
2022/06/22 14:34:58;;;;;;;3.38;1.70;;;31.60;53.80;;;;;;5057098;28;20075;-78
2022/06/22 14:37:52;;;;;;;5.25;1.83;;;31.80;53.20;;;;;;5067182;28;20052;-78
2022/06/22 14:41:00;;;;;;;3.85;1.45;;;32.20;53.40;;;;;;5051815;28;20158;-76
2022/06/22 14:44:01;;;;;;;5.00;1.60;;;32.40;52.10;;;;;;5061647;28;20135;-77
2022/06/22 14:47:11;;;;;;;5.57;1.50;;;32.50;51.10;;;;;;5062446;28;20064;-78
2022/06/22 14:50:12;;;;;;;8.02;1.23;;;32.40;50.40;;;;;;5047632;28;20055;-79
2022/06/22 14:53:19;;;;;;;6.00;2.45;;;32.30;51.80;;;;;;5071562;28;20052;-81
2022/06/22 14:56:12;;;;;;;5.72;1.40;;;32.30;52.70;;;;;;5070338;28;20438;-80
2022/06/22 14:59:13;;;;;;;4.15;1.58;;;32.20;51.70;;;;;;5071285;28;20384;-75
2022/06/22 15:02:16;;;;;;;5.60;1.52;;;32.00;52.10;;;;;;5069505;28;20098;-76
2022/06/22 15:05:11;;;;;;;7.20;1.40;;;31.80;52.20;;;;;;5039273;28;20055;-77
2022/06/22 15:08:00;;;;;;;7.88;1.85;;;31.70;53.50;;;;;;5071410;28;20408;-79
2022/06/22 15:11:00;;;;;;;5.70;2.13;;;31.50;54.10;;;;;;5069711;28;20044;-81
2022/06/22 15:13:49;;;;;;;4.40;2.13;;;31.50;53.00;;;;;;5039540;28;20048;-77
2022/06/22 15:16:42;;;;;;;6.25;1.70;;;31.60;53.50;;;;;;5053281;28;20048;-83
2022/06/22 15:19:47;;;;;;;6.07;1.90;;;31.80;52.60;;;;;;5070248;28;20109;-86
2022/06/22 15:22:53;;;;;;;5.05;1.77;;;31.60;52.30;;;;;;5071971;28;20044;-81
2022/06/22 15:26:20;;;;;;;4.88;2.00;;;31.10;52.90;;;;;;5070361;28;20044;-78
2022/06/22 15:29:22;;;;;;;5.93;1.75;;;30.70;53.30;;;;;;5052212;28;20454;-81
2022/06/22 15:32:15;;;;;;;6.15;1.55;;;30.60;53.40;;;;;;5053103;28;20106;-80
2022/06/22 15:35:07;;;;;;;6.53;2.08;;;30.30;54.20;;;;;;5053267;28;20048;-78
2022/06/22 15:38:08;;;;;;;4.07;1.60;;;29.80;53.90;;;;;;5069874;28;20048;-82
2022/06/22 15:41:06;;;;;;;6.00;2.13;;;29.70;55.40;;;;;;5071808;28;20522;-79
2022/06/22 15:44:21;;;;;;;6.47;1.75;;;29.50;54.90;;;;;;5071014;28;20068;-83
2022/06/22 15:47:16;;;;;;;;;;;28.50;55.90;;;;;;5040521;28;20197;-79
2022/06/22 15:50:29;;;;;;;3.72;1.30;;;28.00;57.90;;;;;;5070132;28;20434;-80
2022/06/22 15:53:37;;;;;;;4.93;1.50;;;27.80;58.70;;;;;;5070368;28;20154;-90
2022/06/22 15:56:50;;;;;;;4.38;1.25;;;27.70;60.20;;;;;;5052933;28;20092;-80
2022/06/22 16:00:13;;;;;;;5.10;1.40;;;27.30;60.60;;;;;;5069244;28;20098;-79
2022/06/22 16:03:21;;;;;;;5.70;1.83;;;26.90;62.90;;;;;;5070107;28;20040;-81
2022/06/22 16:06:16;;;;;;;3.53;1.52;;;26.50;64.60;;;;;;5068789;28;20041;-86
2022/06/22 16:09:16;;;;;;;6.00;1.42;;;26.30;65.60;;;;;;5070361;28;20391;-89
2022/06/22 16:15:42;;;;;;;5.63;1.75;;;25.50;69.10;;;;;;5029297;28;20041;-81
2022/06/22 16:18:50;;;;;;;5.30;1.40;;;25.20;72.60;;;;;;5028519;28;20081;-77
2022/06/22 16:22:19;;;;;;;3.03;1.40;;;24.80;78.00;;;;;;5030106;28;20060;-78
2022/06/22 16:25:16;;;;;;;6.63;1.20;;;24.50;81.70;;;;;;4950491;28;20086;-78
2022/06/22 16:28:07;;;;;;;4.82;1.60;;;24.30;86.10;;;;;;5028985;28;20151;-77
2022/06/22 16:31:38;;;;;;;4.65;1.70;;;23.90;90.10;;;;;;5030096;28;20505;-77
2022/06/22 16:34:39;;;;;;;6.40;1.25;;;23.80;91.90;;;;;;4950139;29;20055;-76
2022/06/22 16:37:35;;;;;;;3.92;1.65;;;23.50;93.00;;;;;;5030733;28;20049;-76
2022/06/22 16:40:35;;;;;;;4.55;1.40;;;23.30;94.10;;;;;;5033489;28;20053;-77
2022/06/22 16:43:35;;;;;;;3.60;0.93;;;23.00;94.50;;;;;;5032606;28;20587;-76
2022/06/22 16:46:24;;;;;;;4.53;1.30;;;22.80;94.70;;;;;;5032142;28;20060;-77
2022/06/22 16:49:16;;;;;;;5.72;2.70;;;22.70;95.00;;;;;;5033716;28;20045;-79
2022/06/22 16:52:23;;;;;;;5.40;1.63;;;22.60;95.20;;;;;;5032094;28;20525;-82
2022/06/22 16:55:20;;;;;;;4.80;1.70;;;22.70;95.70;;;;;;5033081;28;20053;-79
2022/06/22 16:58:07;;;;;;;4.50;1.38;;;22.70;95.40;;;;;;5032011;28;20053;-78
2022/06/22 17:00:59;;;;;;;5.72;1.20;;;22.60;95.10;;;;;;5019170;28;20460;-90
2022/06/22 17:04:00;;;;;;;5.63;1.95;;;22.60;95.30;;;;;;5033676;28;20110;-81
2022/06/22 17:07:30;;;;;;;4.32;1.35;;;22.40;95.80;;;;;;5032634;28;20143;-80
2022/06/22 17:10:28;;;;;;;3.67;1.50;;;22.20;96.70;;;;;;5012934;28;20045;-77
2022/06/22 17:13:22;;;;;;;4.00;1.30;;;21.90;96.60;;;;;;5033021;28;20051;-78
2022/06/22 17:16:25;;;;;;;5.63;1.52;;;21.70;96.90;;;;;;5030802;28;20115;-81
2022/06/22 17:19:27;;;;;;;6.20;1.73;;;21.60;97.20;;;;;;5032306;28;20049;-77
2022/06/22 17:22:43;;;;;;;3.30;1.10;;;21.30;97.50;;;;;;5031263;28;20082;-77
2022/06/22 17:26:07;;;;;;;3.78;1.40;;;21.20;98.00;;;;;;5031640;28;20048;-81
2022/06/22 17:29:12;;;;;;;6.28;2.15;;;20.80;98.50;;;;;;5030854;28;20053;-81
2022/06/22 17:31:59;;;;;;;;;;;20.80;99.00;;;;;;5032003;28;20060;-80
2022/06/22 17:35:07;;;;;;;4.18;1.55;;;20.70;99.60;;;;;;5032756;28;19932;-79
2022/06/22 17:38:28;;;;;;;4.35;0.95;;;20.70;98.80;;;;;;5029614;28;20771;-78
2022/06/22 17:41:40;;;;;;;3.45;0.90;;;20.70;99.90;;;;;;5022398;28;20049;-78
2022/06/22 17:44:48;;;;;;;5.57;1.80;;;20.60;99.50;;;;;;5007277;28;20061;-77
2022/06/22 17:47:41;;;;;;;4.55;1.17;;;20.50;99.90;;;;;;5019072;28;20568;-79
2022/06/22 17:50:35;;;;;;;4.68;1.10;;;20.40;99.80;;;;;;5020609;28;20133;-78
2022/06/22 17:53:27;;;;;;;3.13;1.10;;;20.40;99.90;;;;;;5020365;28;20042;-78
2022/06/22 17:56:20;;;;;;;4.28;1.30;;;20.40;99.90;;;;;;5021836;28;20448;-78
2022/06/22 17:59:31;;;;;;;2.40;0.75;;;20.30;99.90;;;;;;5025014;28;20064;-78
2022/06/22 18:02:38;;;;;;;2.40;0.85;;;20.20;99.90;;;;;;5025999;28;20045;-76
2022/06/22 18:05:50;;;;;;;4.32;1.00;;;20.10;99.90;;;;;;5005277;28;20041;-77
2022/06/22 18:08:42;;;;;;;5.13;1.00;;;20.10;99.90;;;;;;4997129;28;20045;-76
2022/06/22 18:11:43;;;;;;;2.15;0.80;;;20.10;99.90;;;;;;5046692;28;20401;-77
2022/06/22 18:14:35;;;;;;;3.75;0.98;;;19.90;99.90;;;;;;5031350;28;20399;-78
2022/06/22 18:17:23;;;;;;;2.00;0.70;;;19.90;99.90;;;;;;5029424;28;20046;-77
2022/06/22 18:20:21;;;;;;;3.10;0.88;;;19.80;99.90;;;;;;5027055;28;20083;-77
2022/06/22 18:23:32;;;;;;;4.25;0.82;;;19.80;99.90;;;;;;5027818;28;20041;-76
2022/06/22 18:26:22;;;;;;;1.48;0.60;;;19.60;99.90;;;;;;5025953;28;20405;-76
2022/06/22 18:29:16;;;;;;;1.38;0.60;;;19.60;99.90;;;;;;5028794;28;20045;-76
2022/06/22 18:32:11;;;;;;;3.80;0.80;;;19.50;99.90;;;;;;5029201;28;20440;-77
2022/06/22 18:35:19;;;;;;;;;;;19.40;99.90;;;;;;5017001;28;20045;-76
2022/06/22 18:38:16;;;;;;;3.88;1.33;;;19.20;99.90;;;;;;5013596;28;19932;-76
2022/06/22 18:44:21;;;;;;;1.40;0.60;;;19.10;99.90;;;;;;5012081;28;20475;-76
2022/06/22 18:47:29;;;;;;;1.57;0.60;;;18.90;99.90;;;;;;5013029;28;20057;-77
2022/06/22 18:50:47;;;;;;;1.73;0.73;;;18.90;99.90;;;;;;5029488;28;20045;-76
2022/06/22 18:53:39;;;;;;;2.50;0.80;;;18.80;99.90;;;;;;5011857;28;20083;-77
2022/06/22 18:56:26;;;;;;;3.95;1.00;;;18.70;99.90;;;;;;5015830;28;20081;-76
2022/06/22 18:59:26;;;;;;;3.13;0.70;;;18.60;99.90;;;;;;5030440;28;20045;-76
2022/06/22 19:02:17;;;;;;;1.48;0.65;;;18.50;99.90;;;;;;5029438;28;20120;-76
2022/06/22 19:05:39;;;;;;;3.88;0.70;;;18.40;99.90;;;;;;5011521;28;20038;-75
2022/06/22 19:08:34;;;;;;;3.58;1.00;;;18.40;99.90;;;;;;5028007;28;20052;-75
2022/06/22 19:11:23;;;;;;;1.30;0.75;;;18.30;99.90;;;;;;5012319;28;20120;-75